Time;durP1;ratioP1;P1;durP2;ratioP2;P2;SDS_P1;SDS_P2;PMS_P1;PMS_P2;Temp;Humidity;BMP_temperature;BMP_pressure;BME280_temperature;BME280_humidity;BME280_pressure;Samples;Min_cycle;Max_cycle;Signal;HPM_P1;HPM_P2
2023/04/10 00:00:34;;;;;;;11.65;7.63;;;;;;;;;;10256636;28;20236;-79
2023/04/10 00:05:35;;;;;;;17.27;8.73;;;;;;;;;;10239204;28;20329;-79
2023/04/10 00:10:37;;;;;;;13.95;8.50;;;;;;;;;;10244655;28;20221;-77
2023/04/10 00:15:38;;;;;;;13.52;7.97;;;;;;;;;;10251098;28;20228;-78
2023/04/10 00:20:39;;;;;;;14.35;8.65;;;;;;;;;;10255230;28;20231;-77
2023/04/10 00:25:40;;;;;;;13.30;7.85;;;;;;;;;;10233677;28;20233;-78
2023/04/10 00:30:41;;;;;;;14.38;7.70;;;;;;;;;;10260851;28;20233;-78
2023/04/10 00:35:42;;;;;;;12.93;7.85;;;;;;;;;;10251812;28;20281;-78
2023/04/10 00:40:43;;;;;;;13.27;6.97;;;;;;;;;;10246968;28;20221;-78
2023/04/10 00:45:44;;;;;;;11.80;7.57;;;;;;;;;;10276276;28;20562;-79
2023/04/10 00:50:46;;;;;;;14.25;7.70;;;;;;;;;;10283764;28;20275;-77
2023/04/10 00:55:49;;;;;;;15.95;7.15;;;;;;;;;;10262368;28;20213;-78
2023/04/10 01:00:50;;;;;;;18.02;8.80;;;;;;;;;;10268606;28;20257;-79
2023/04/10 01:06:13;;;;;;;16.10;7.80;;;;;;;;;;10257134;28;20224;-79
2023/04/10 01:11:27;;;;;;;15.38;8.45;;;;;;;;;;10257810;28;20272;-79
2023/04/10 01:16:34;;;;;;;14.25;8.30;;;;;;;;;;10273561;28;20222;-78
2023/04/10 01:21:36;;;;;;;14.55;7.35;;;;;;;;;;10252360;28;20216;-79
2023/04/10 01:26:52;;;;;;;15.02;8.18;;;;;;;;;;10272526;28;20300;-79
2023/04/10 01:31:57;;;;;;;16.48;8.10;;;;;;;;;;10253344;28;20705;-80
2023/04/10 01:37:03;;;;;;;15.90;8.40;;;;;;;;;;10255051;28;20577;-78
2023/04/10 01:42:05;;;;;;;14.77;7.63;;;;;;;;;;10261986;28;20276;-79
2023/04/10 01:47:13;;;;;;;11.40;6.80;;;;;;;;;;10281169;28;20561;-79
2023/04/10 01:52:16;;;;;;;16.10;7.43;;;;;;;;;;10254404;28;20213;-78
2023/04/10 01:57:22;;;;;;;12.50;6.95;;;;;;;;;;10239380;28;20228;-79
2023/04/10 02:02:33;;;;;;;14.00;7.63;;;;;;;;;;10268340;28;20221;-79
2023/04/10 02:07:36;;;;;;;9.10;6.45;;;;;;;;;;10278620;28;20218;-80
2023/04/10 02:12:39;;;;;;;13.68;7.10;;;;;;;;;;10259141;28;20288;-79
2023/04/10 02:17:41;;;;;;;13.43;6.97;;;;;;;;;;10273014;28;20328;-78
2023/04/10 02:22:42;;;;;;;11.80;7.50;;;;;;;;;;10259478;28;20229;-78
2023/04/10 02:27:43;;;;;;;13.40;7.72;;;;;;;;;;10276809;28;20324;-78
2023/04/10 02:32:44;;;;;;;16.17;7.85;;;;;;;;;;10260071;28;20225;-78
2023/04/10 02:37:46;;;;;;;16.10;7.90;;;;;;;;;;10254383;28;20225;-78
2023/04/10 02:42:47;;;;;;;13.63;7.75;;;;;;;;;;10268570;28;20789;-77
2023/04/10 02:47:48;;;;;;;11.35;7.38;;;;;;;;;;10257701;28;20213;-77
2023/04/10 02:52:50;;;;;;;13.05;6.05;;;;;;;;;;10265566;28;20225;-78
2023/04/10 02:57:51;;;;;;;13.98;7.05;;;;;;;;;;10253596;28;20264;-77
2023/04/10 03:02:52;;;;;;;13.32;6.47;;;;;;;;;;10267866;28;20226;-77
2023/04/10 03:07:54;;;;;;;12.23;7.30;;;;;;;;;;10261079;28;20217;-77
2023/04/10 03:12:55;;;;;;;9.55;6.65;;;;;;;;;;10266407;28;20304;-78
2023/04/10 03:17:56;;;;;;;11.35;6.60;;;;;;;;;;10252238;28;20214;-76
2023/04/10 03:22:58;;;;;;;10.60;6.53;;;;;;;;;;10265756;28;20287;-77
2023/04/10 03:28:01;;;;;;;13.85;6.80;;;;;;;;;;10264963;28;20268;-77
2023/04/10 03:33:02;;;;;;;13.52;6.97;;;;;;;;;;10253422;28;20218;-77
2023/04/10 03:38:04;;;;;;;12.50;7.32;;;;;;;;;;10262762;28;20221;-77
2023/04/10 03:43:05;;;;;;;13.15;6.95;;;;;;;;;;10251593;28;20229;-78
2023/04/10 03:48:08;;;;;;;11.90;6.60;;;;;;;;;;10251645;28;20221;-77
2023/04/10 03:53:18;;;;;;;15.90;7.53;;;;;;;;;;10254077;28;20248;-77
2023/04/10 03:58:20;;;;;;;14.18;6.78;;;;;;;;;;10276756;28;20232;-77
2023/04/10 04:03:22;;;;;;;11.18;6.50;;;;;;;;;;10272892;28;20738;-77
2023/04/10 04:08:35;;;;;;;12.88;7.25;;;;;;;;;;10277784;28;20708;-76
2023/04/10 04:13:55;;;;;;;13.82;6.97;;;;;;;;;;10264224;28;20259;-77
2023/04/10 04:19:11;;;;;;;12.80;6.60;;;;;;;;;;10248843;28;20231;-76
2023/04/10 04:24:18;;;;;;;15.10;7.30;;;;;;;;;;10279732;28;20221;-77
2023/04/10 04:29:40;;;;;;;15.88;7.80;;;;;;;;;;10259181;28;20228;-77
2023/04/10 04:34:50;;;;;;;18.30;8.43;;;;;;;;;;10246502;28;20371;-77
2023/04/10 04:40:10;;;;;;;12.98;6.80;;;;;;;;;;10259230;28;20249;-78
2023/04/10 04:45:31;;;;;;;15.50;7.75;;;;;;;;;;10259253;28;20229;-76
2023/04/10 04:50:41;;;;;;;14.30;8.02;;;;;;;;;;10262724;28;20328;-77
2023/04/10 04:56:01;;;;;;;16.05;8.02;;;;;;;;;;10257671;28;20209;-77
2023/04/10 05:01:21;;;;;;;18.08;8.40;;;;;;;;;;10277631;28;20750;-77
2023/04/10 05:06:42;;;;;;;18.55;8.23;;;;;;;;;;10270177;28;20307;-76
2023/04/10 05:11:53;;;;;;;14.55;7.18;;;;;;;;;;10275859;28;20225;-79
2023/04/10 05:17:21;;;;;;;14.18;7.70;;;;;;;;;;10261969;28;20225;-78
2023/04/10 05:22:42;;;;;;;16.75;8.00;;;;;;;;;;10245264;28;20313;-78
2023/04/10 05:28:12;;;;;;;15.93;8.73;;;;;;;;;;10187172;28;20337;-78
2023/04/10 05:33:31;;;;;;;19.83;8.98;;;;;;;;;;10260206;28;20232;-75
2023/04/10 05:38:46;;;;;;;14.80;8.57;;;;;;;;;;10242278;28;20225;-78
2023/04/10 05:44:02;;;;;;;19.55;8.80;;;;;;;;;;10244226;28;20225;-79
2023/04/10 05:49:20;;;;;;;20.70;9.90;;;;;;;;;;10240587;28;20225;-78
2023/04/10 05:54:51;;;;;;;19.08;9.48;;;;;;;;;;10250464;28;20233;-76
2023/04/10 06:00:14;;;;;;;23.08;10.70;;;;;;;;;;10252675;28;20223;-76
2023/04/10 06:05:15;;;;;;;18.50;10.10;;;;;;;;;;10269439;28;20207;-76
2023/04/10 06:10:17;;;;;;;18.80;10.35;;;;;;;;;;10252473;28;20452;-76
2023/04/10 06:15:18;;;;;;;18.40;9.43;;;;;;;;;;10280226;28;20282;-77
2023/04/10 06:20:20;;;;;;;20.65;9.75;;;;;;;;;;10241968;28;20226;-77
2023/04/10 06:25:21;;;;;;;19.45;10.50;;;;;;;;;;10260030;28;20256;-77
2023/04/10 06:30:22;;;;;;;15.90;10.70;;;;;;;;;;10248270;28;20209;-78
2023/04/10 06:35:23;;;;;;;20.75;12.15;;;;;;;;;;10230216;28;20228;-78
2023/04/10 06:40:24;;;;;;;22.88;12.15;;;;;;;;;;10241971;28;20224;-78
2023/04/10 06:45:25;;;;;;;20.30;11.80;;;;;;;;;;10255814;28;20228;-80
2023/04/10 06:50:26;;;;;;;20.45;11.82;;;;;;;;;;10275491;28;20228;-77
2023/04/10 06:55:27;;;;;;;20.38;12.07;;;;;;;;;;10259780;28;20244;-78
2023/04/10 07:00:30;;;;;;;21.02;13.02;;;;;;;;;;10259057;28;20236;-78
2023/04/10 07:05:31;;;;;;;22.42;13.82;;;;;;;;;;10237236;28;20244;-78
2023/04/10 07:10:32;;;;;;;19.45;11.50;;;;;;;;;;10253279;28;20737;-78
2023/04/10 07:15:33;;;;;;;19.13;11.85;;;;;;;;;;10229032;28;20642;-78
2023/04/10 07:20:34;;;;;;;20.15;12.75;;;;;;;;;;10236551;28;20282;-80
2023/04/10 07:25:35;;;;;;;21.20;12.23;;;;;;;;;;10240542;28;20304;-79
2023/04/10 07:30:37;;;;;;;15.65;9.43;;;;;;;;;;10262355;28;20214;-76
2023/04/10 07:35:38;;;;;;;17.55;11.07;;;;;;;;;;10255675;28;20225;-78
2023/04/10 07:40:39;;;;;;;19.70;12.20;;;;;;;;;;10253070;28;20300;-78
2023/04/10 07:45:40;;;;;;;16.27;11.23;;;;;;;;;;10256239;28;21991;-77
2023/04/10 07:50:41;;;;;;;21.65;12.68;;;;;;;;;;10256224;28;20244;-80
2023/04/10 07:55:43;;;;;;;21.15;10.88;;;;;;;;;;10272434;28;20240;-78
2023/04/10 08:00:44;;;;;;;21.23;12.10;;;;;;;;;;10245810;28;20321;-77
2023/04/10 08:05:45;;;;;;;20.60;12.05;;;;;;;;;;10239494;28;20228;-77
2023/04/10 08:10:47;;;;;;;18.98;12.30;;;;;;;;;;10255367;28;20232;-77
2023/04/10 08:15:48;;;;;;;17.73;11.02;;;;;;;;;;10267103;28;20228;-78
2023/04/10 08:20:49;;;;;;;18.40;12.23;;;;;;;;;;10244749;28;20228;-77
2023/04/10 08:25:50;;;;;;;18.30;11.68;;;;;;;;;;10255964;28;20220;-78
2023/04/10 08:30:52;;;;;;;12.57;9.43;;;;;;;;;;10272556;28;20222;-78
2023/04/10 08:35:53;;;;;;;15.07;10.15;;;;;;;;;;10253447;28;20272;-78
2023/04/10 08:40:54;;;;;;;19.92;10.60;;;;;;;;;;10245922;28;20225;-80
2023/04/10 08:45:55;;;;;;;17.95;10.95;;;;;;;;;;10239802;28;20324;-76
2023/04/10 08:51:00;;;;;;;20.80;12.18;;;;;;;;;;10249705;28;20264;-76
2023/04/10 08:56:03;;;;;;;14.45;10.45;;;;;;;;;;10239937;28;20228;-77
2023/04/10 09:01:05;;;;;;;20.05;11.57;;;;;;;;;;10256532;28;20248;-77
2023/04/10 09:06:07;;;;;;;20.85;11.95;;;;;;;;;;10244892;28;20927;-77
2023/04/10 09:11:08;;;;;;;17.73;11.55;;;;;;;;;;10214011;28;20221;-77
2023/04/10 09:16:09;;;;;;;16.15;11.48;;;;;;;;;;10245147;28;20225;-77
2023/04/10 09:21:11;;;;;;;16.70;10.75;;;;;;;;;;10219561;28;20247;-80
2023/04/10 09:26:24;;;;;;;16.90;10.85;;;;;;;;;;10227886;28;20232;-78
2023/04/10 09:31:36;;;;;;;16.83;11.02;;;;;;;;;;10242794;28;20220;-81
2023/04/10 09:36:37;;;;;;;16.80;11.18;;;;;;;;;;10242938;28;20240;-79
2023/04/10 09:41:51;;;;;;;14.50;9.57;;;;;;;;;;10247973;28;20268;-76
2023/04/10 09:46:52;;;;;;;12.07;8.32;;;;;;;;;;10239919;28;20699;-77
2023/04/10 09:51:53;;;;;;;11.15;8.85;;;;;;;;;;10227336;28;20648;-77
2023/04/10 09:56:55;;;;;;;11.02;9.05;;;;;;;;;;10216077;28;20225;-80
2023/04/10 10:01:56;;;;;;;10.68;8.23;;;;;;;;;;10248920;28;20222;-78
2023/04/10 10:06:57;;;;;;;11.80;8.40;;;;;;;;;;10252170;28;20596;-78
2023/04/10 10:11:58;;;;;;;12.30;9.15;;;;;;;;;;10263395;28;20974;-78
2023/04/10 10:17:01;;;;;;;10.40;8.32;;;;;;;;;;10249947;28;21217;-78
2023/04/10 10:22:02;;;;;;;10.52;8.15;;;;;;;;;;10233431;28;20300;-77
2023/04/10 10:27:06;;;;;;;9.85;7.35;;;;;;;;;;10252279;28;20954;-78
2023/04/10 10:32:07;;;;;;;6.45;5.88;;;;;;;;;;10253302;28;20312;-78
2023/04/10 10:37:08;;;;;;;7.22;6.05;;;;;;;;;;10252854;28;20280;-80
2023/04/10 10:42:18;;;;;;;9.93;7.63;;;;;;;;;;10241871;28;20224;-79
2023/04/10 10:47:19;;;;;;;10.35;7.78;;;;;;;;;;10233728;28;20308;-79
2023/04/10 10:52:39;;;;;;;7.72;6.80;;;;;;;;;;10237208;28;20956;-80
2023/04/10 10:57:47;;;;;;;9.40;7.97;;;;;;;;;;10234949;28;20273;-77
2023/04/10 11:03:06;;;;;;;8.95;7.28;;;;;;;;;;10229635;28;20249;-78
2023/04/10 11:08:08;;;;;;;11.52;7.38;;;;;;;;;;10242463;28;20229;-78
2023/04/10 11:13:16;;;;;;;11.73;7.38;;;;;;;;;;10231198;28;20225;-79
2023/04/10 11:18:19;;;;;;;9.70;7.68;;;;;;;;;;10254667;28;20213;-78
2023/04/10 11:23:21;;;;;;;8.32;6.82;;;;;;;;;;10249411;28;20222;-77
2023/04/10 11:28:31;;;;;;;9.43;7.97;;;;;;;;;;10234700;28;20241;-80
2023/04/10 11:33:32;;;;;;;13.23;9.15;;;;;;;;;;10245809;28;21229;-79
2023/04/10 11:38:34;;;;;;;10.63;6.85;;;;;;;;;;10228933;28;20234;-78
2023/04/10 11:43:35;;;;;;;6.85;6.03;;;;;;;;;;10249776;28;20228;-78
2023/04/10 11:48:36;;;;;;;8.68;5.72;;;;;;;;;;10249544;28;20217;-78
2023/04/10 11:53:38;;;;;;;6.43;5.78;;;;;;;;;;10247465;28;20241;-79
2023/04/10 11:58:39;;;;;;;7.32;6.63;;;;;;;;;;10248309;28;20641;-79
2023/04/10 12:03:41;;;;;;;7.28;6.55;;;;;;;;;;10255465;28;20221;-79
2023/04/10 12:08:45;;;;;;;5.85;4.85;;;;;;;;;;10246117;28;20312;-77
2023/04/10 12:13:46;;;;;;;7.75;6.80;;;;;;;;;;10256451;28;20233;-79
2023/04/10 12:18:48;;;;;;;7.40;6.70;;;;;;;;;;10243122;28;20598;-79
2023/04/10 12:23:49;;;;;;;7.38;6.60;;;;;;;;;;10266090;28;20319;-79
2023/04/10 12:28:52;;;;;;;8.55;5.68;;;;;;;;;;10273160;28;20765;-78
2023/04/10 12:33:56;;;;;;;7.68;6.95;;;;;;;;;;10254967;28;20315;-78
2023/04/10 12:38:58;;;;;;;6.72;6.03;;;;;;;;;;10256028;28;20316;-78
2023/04/10 12:44:08;;;;;;;7.82;6.15;;;;;;;;;;10265083;28;20611;-79
2023/04/10 12:49:13;;;;;;;5.72;5.15;;;;;;;;;;10238227;28;20225;-76
2023/04/10 12:54:28;;;;;;;6.50;5.40;;;;;;;;;;10257578;28;20715;-79
2023/04/10 12:59:30;;;;;;;6.35;5.72;;;;;;;;;;10237085;28;20699;-79
2023/04/10 13:04:31;;;;;;;5.43;4.93;;;;;;;;;;10271033;28;20221;-79
2023/04/10 13:09:32;;;;;;;8.20;5.82;;;;;;;;;;10263630;28;20221;-79
2023/04/10 13:14:33;;;;;;;5.72;5.22;;;;;;;;;;10248994;28;20707;-79
2023/04/10 13:19:34;;;;;;;5.75;5.25;;;;;;;;;;10228119;28;20209;-77
2023/04/10 13:24:35;;;;;;;5.22;4.82;;;;;;;;;;10257293;28;20308;-78
2023/04/10 13:29:38;;;;;;;4.97;4.47;;;;;;;;;;10247367;28;20222;-78
2023/04/10 13:34:41;;;;;;;4.45;4.15;;;;;;;;;;10250903;28;20272;-78
2023/04/10 13:39:42;;;;;;;5.55;5.07;;;;;;;;;;10265047;28;20249;-77
2023/04/10 13:44:43;;;;;;;6.20;4.72;;;;;;;;;;10258374;28;20225;-80
2023/04/10 13:49:44;;;;;;;5.55;4.32;;;;;;;;;;10255631;28;20234;-78
2023/04/10 13:54:45;;;;;;;5.22;4.80;;;;;;;;;;10269886;28;20750;-82
2023/04/10 13:59:47;;;;;;;5.25;4.85;;;;;;;;;;10252452;28;20234;-79
2023/04/10 14:04:50;;;;;;;5.00;4.50;;;;;;;;;;10232801;28;20923;-80
2023/04/10 14:09:51;;;;;;;3.45;3.25;;;;;;;;;;10230550;28;20275;-80
2023/04/10 14:14:52;;;;;;;5.75;4.57;;;;;;;;;;10238076;28;20217;-78
2023/04/10 14:19:53;;;;;;;4.78;4.15;;;;;;;;;;10238995;28;20221;-79
2023/04/10 14:24:55;;;;;;;5.03;3.53;;;;;;;;;;10270716;28;20703;-78
2023/04/10 14:29:56;;;;;;;3.50;3.17;;;;;;;;;;10242583;28;20668;-78
2023/04/10 14:34:57;;;;;;;3.65;3.45;;;;;;;;;;10255408;28;20212;-78
2023/04/10 14:39:58;;;;;;;4.60;4.30;;;;;;;;;;10241711;28;20597;-78
2023/04/10 14:44:59;;;;;;;3.85;3.55;;;;;;;;;;10235557;28;20232;-77
2023/04/10 14:50:00;;;;;;;2.70;2.55;;;;;;;;;;10242358;28;20298;-78
2023/04/10 14:55:01;;;;;;;4.40;3.45;;;;;;;;;;10270953;28;20222;-79
2023/04/10 15:00:03;;;;;;;4.45;4.15;;;;;;;;;;10249836;28;20276;-78
2023/04/10 15:05:04;;;;;;;4.43;4.13;;;;;;;;;;10261651;28;20281;-79
2023/04/10 15:10:06;;;;;;;3.45;3.35;;;;;;;;;;10258820;28;20313;-79
2023/04/10 15:15:07;;;;;;;3.55;3.30;;;;;;;;;;10252403;28;20632;-77
2023/04/10 15:20:08;;;;;;;4.22;3.85;;;;;;;;;;10269705;28;20687;-76
2023/04/10 15:25:12;;;;;;;4.43;4.13;;;;;;;;;;10229252;28;20691;-78
2023/04/10 15:30:13;;;;;;;4.88;4.47;;;;;;;;;;10252822;28;20221;-79
2023/04/10 15:35:14;;;;;;;4.55;4.25;;;;;;;;;;10257463;28;20310;-80
2023/04/10 15:40:16;;;;;;;5.88;5.45;;;;;;;;;;10258659;28;20205;-77
2023/04/10 15:45:17;;;;;;;4.93;4.55;;;;;;;;;;10257502;28;20292;-79
2023/04/10 15:50:18;;;;;;;5.97;4.78;;;;;;;;;;10253523;28;20949;-78
2023/04/10 15:55:19;;;;;;;5.55;5.13;;;;;;;;;;10249523;28;20209;-78
2023/04/10 16:00:21;;;;;;;4.70;4.40;;;;;;;;;;10255191;28;20375;-80
2023/04/10 16:05:22;;;;;;;5.40;4.90;;;;;;;;;;10242799;28;20722;-79
2023/04/10 16:10:23;;;;;;;5.18;4.78;;;;;;;;;;10245994;28;20229;-78
2023/04/10 16:15:26;;;;;;;6.05;5.60;;;;;;;;;;10278704;28;20231;-80
2023/04/10 16:20:27;;;;;;;5.50;5.03;;;;;;;;;;10245840;28;20217;-78
2023/04/10 16:25:29;;;;;;;5.22;4.80;;;;;;;;;;10256285;28;20236;-79
2023/04/10 16:30:30;;;;;;;5.40;4.90;;;;;;;;;;10256514;28;20820;-82
2023/04/10 16:35:34;;;;;;;4.72;4.20;;;;;;;;;;10236104;28;20276;-78
2023/04/10 16:40:35;;;;;;;5.30;3.97;;;;;;;;;;10237981;28;20221;-81
2023/04/10 16:45:36;;;;;;;6.38;5.65;;;;;;;;;;10254642;28;20569;-80
2023/04/10 16:50:37;;;;;;;6.07;5.47;;;;;;;;;;10225324;28;20716;-81
2023/04/10 16:55:38;;;;;;;9.40;8.40;;;;;;;;;;10274602;28;20279;-78
2023/04/10 17:00:39;;;;;;;6.63;6.10;;;;;;;;;;10231575;28;21427;-79
2023/04/10 17:05:40;;;;;;;5.75;5.05;;;;;;;;;;10235913;28;20364;-78
2023/04/10 17:10:41;;;;;;;5.25;4.85;;;;;;;;;;10228356;28;20252;-80
2023/04/10 17:15:43;;;;;;;5.00;4.60;;;;;;;;;;10265864;28;20225;-79
2023/04/10 17:20:44;;;;;;;5.47;4.97;;;;;;;;;;10241052;28;20294;-79
2023/04/10 17:25:45;;;;;;;6.60;5.43;;;;;;;;;;10247354;28;20224;-79
2023/04/10 17:30:47;;;;;;;5.40;5.00;;;;;;;;;;10245956;28;20234;-78
2023/04/10 17:35:49;;;;;;;4.65;4.20;;;;;;;;;;10271305;28;20225;-80
2023/04/10 17:40:50;;;;;;;4.97;4.28;;;;;;;;;;10273562;28;20233;-79
2023/04/10 17:45:51;;;;;;;5.93;4.10;;;;;;;;;;10265286;28;20226;-80
2023/04/10 17:50:52;;;;;;;4.00;3.70;;;;;;;;;;10253715;28;20225;-80
2023/04/10 17:55:53;;;;;;;3.42;3.22;;;;;;;;;;10262326;28;20870;-79
2023/04/10 18:00:54;;;;;;;3.75;3.47;;;;;;;;;;10245154;28;20225;-79
2023/04/10 18:05:55;;;;;;;3.88;3.47;;;;;;;;;;10251389;28;20217;-82
2023/04/10 18:10:56;;;;;;;3.47;3.17;;;;;;;;;;10263497;28;20313;-80
2023/04/10 18:15:58;;;;;;;3.80;3.60;;;;;;;;;;10262568;28;20217;-82
2023/04/10 18:21:02;;;;;;;2.47;2.38;;;;;;;;;;10276679;28;20862;-81
2023/04/10 18:26:03;;;;;;;3.42;3.22;;;;;;;;;;10269397;28;20233;-81
2023/04/10 18:31:04;;;;;;;3.95;3.72;;;;;;;;;;10253443;28;20313;-84
2023/04/10 18:36:05;;;;;;;2.42;2.33;;;;;;;;;;10285146;28;20307;-81
2023/04/10 18:41:06;;;;;;;2.70;2.55;;;;;;;;;;10274615;28;20228;-81
2023/04/10 18:46:07;;;;;;;3.40;3.08;;;;;;;;;;10281402;28;20240;-81
2023/04/10 18:51:09;;;;;;;2.53;2.42;;;;;;;;;;10281166;28;20225;-81
2023/04/10 18:56:10;;;;;;;2.00;1.90;;;;;;;;;;10274547;28;21029;-82
2023/04/10 19:01:12;;;;;;;2.38;2.28;;;;;;;;;;10263625;28;20229;-82
2023/04/10 19:06:13;;;;;;;2.90;2.70;;;;;;;;;;10285681;28;20217;-81
2023/04/10 19:11:14;;;;;;;2.85;2.65;;;;;;;;;;10292301;28;20252;-81
2023/04/10 19:16:18;;;;;;;2.90;2.70;;;;;;;;;;10276208;28;20222;-81
2023/04/10 19:21:19;;;;;;;2.65;2.53;;;;;;;;;;10282879;28;20209;-82
2023/04/10 19:26:20;;;;;;;2.30;2.17;;;;;;;;;;10293949;28;20225;-82
2023/04/10 19:31:22;;;;;;;2.50;2.40;;;;;;;;;;10277865;28;20296;-81
2023/04/10 19:36:23;;;;;;;2.60;2.50;;;;;;;;;;10288423;28;20218;-81
2023/04/10 19:41:25;;;;;;;2.80;2.60;;;;;;;;;;10276258;28;20217;-81
2023/04/10 19:46:26;;;;;;;2.70;2.60;;;;;;;;;;10263554;28;20232;-81
2023/04/10 19:51:27;;;;;;;3.15;2.95;;;;;;;;;;10234606;28;20221;-80
2023/04/10 19:56:28;;;;;;;3.15;2.28;;;;;;;;;;10293574;28;20221;-80
2023/04/10 20:01:29;;;;;;;4.18;2.85;;;;;;;;;;10268498;28;20397;-79
2023/04/10 20:06:30;;;;;;;3.13;2.92;;;;;;;;;;10284552;28;20324;-82
2023/04/10 20:11:31;;;;;;;2.88;2.53;;;;;;;;;;10268576;28;20221;-80
2023/04/10 20:16:32;;;;;;;2.80;2.70;;;;;;;;;;10257250;28;20225;-81
2023/04/10 20:21:33;;;;;;;2.97;2.80;;;;;;;;;;10275823;28;20218;-79
2023/04/10 20:26:34;;;;;;;3.28;2.85;;;;;;;;;;10286757;28;20811;-80
2023/04/10 20:31:35;;;;;;;3.22;3.03;;;;;;;;;;10281208;28;20228;-81
2023/04/10 20:36:37;;;;;;;2.70;2.60;;;;;;;;;;10259076;28;20288;-81
2023/04/10 20:41:38;;;;;;;2.65;2.45;;;;;;;;;;10273676;28;20325;-82
2023/04/10 20:46:39;;;;;;;2.92;2.67;;;;;;;;;;10254325;28;20321;-80
2023/04/10 20:51:40;;;;;;;3.22;2.90;;;;;;;;;;10273325;28;20244;-80
2023/04/10 20:56:41;;;;;;;3.10;2.90;;;;;;;;;;10263046;28;20225;-81
2023/04/10 21:01:42;;;;;;;2.63;2.53;;;;;;;;;;10257087;28;20228;-80
2023/04/10 21:06:43;;;;;;;2.78;2.58;;;;;;;;;;10287546;28;20303;-78
2023/04/10 21:11:44;;;;;;;2.75;2.55;;;;;;;;;;10276935;28;20743;-80
2023/04/10 21:16:45;;;;;;;2.70;2.50;;;;;;;;;;10286319;28;20600;-81
2023/04/10 21:21:46;;;;;;;2.83;2.72;;;;;;;;;;10285820;28;20211;-80
2023/04/10 21:26:47;;;;;;;2.90;2.70;;;;;;;;;;10291941;28;20225;-80
2023/04/10 21:31:49;;;;;;;2.67;2.58;;;;;;;;;;10283992;28;20218;-80
2023/04/10 21:36:49;;;;;;;4.85;3.15;;;;;;;;;;10295258;28;20230;-79
2023/04/10 21:41:50;;;;;;;2.70;2.50;;;;;;;;;;10305042;28;20213;-79
2023/04/10 21:46:51;;;;;;;1.88;1.77;;;;;;;;;;10271251;28;20364;-80
2023/04/10 21:51:52;;;;;;;2.53;2.42;;;;;;;;;;10261372;28;20221;-79
2023/04/10 21:56:53;;;;;;;2.70;2.40;;;;;;;;;;10269115;28;20605;-81
2023/04/10 22:01:54;;;;;;;2.72;2.42;;;;;;;;;;10281763;28;20671;-81
2023/04/10 22:06:55;;;;;;;3.05;2.85;;;;;;;;;;10260385;28;20362;-79
2023/04/10 22:11:56;;;;;;;3.08;2.78;;;;;;;;;;10251202;28;20213;-80
2023/04/10 22:16:57;;;;;;;2.72;2.63;;;;;;;;;;10277819;28;20271;-79
2023/04/10 22:21:58;;;;;;;2.72;2.55;;;;;;;;;;10279612;28;20313;-80
2023/04/10 22:27:00;;;;;;;2.85;2.63;;;;;;;;;;10270271;28;20426;-79
2023/04/10 22:32:02;;;;;;;2.63;2.42;;;;;;;;;;10289944;28;20289;-81
2023/04/10 22:37:03;;;;;;;2.63;2.53;;;;;;;;;;10256101;28;20225;-79
2023/04/10 22:42:04;;;;;;;2.92;2.60;;;;;;;;;;10244957;28;20311;-80
2023/04/10 22:47:05;;;;;;;3.03;2.83;;;;;;;;;;10281001;28;20257;-80
2023/04/10 22:52:06;;;;;;;2.60;2.40;;;;;;;;;;10286447;28;20240;-80
2023/04/10 22:57:07;;;;;;;2.67;2.58;;;;;;;;;;10255247;28;20248;-77
2023/04/10 23:02:08;;;;;;;2.53;2.38;;;;;;;;;;10290145;28;20684;-81
2023/04/10 23:07:09;;;;;;;2.88;2.63;;;;;;;;;;10276401;28;20217;-78
2023/04/10 23:12:10;;;;;;;2.63;2.40;;;;;;;;;;10274678;28;20236;-79
2023/04/10 23:17:11;;;;;;;2.58;2.45;;;;;;;;;;10251970;28;20296;-80
2023/04/10 23:22:12;;;;;;;3.28;3.08;;;;;;;;;;10277044;28;20596;-79
2023/04/10 23:27:13;;;;;;;2.30;2.20;;;;;;;;;;10297246;28;20904;-80
2023/04/10 23:32:15;;;;;;;2.72;2.53;;;;;;;;;;10291151;28;20683;-81
2023/04/10 23:37:16;;;;;;;2.30;2.20;;;;;;;;;;10293382;28;20232;-80
2023/04/10 23:42:17;;;;;;;2.80;2.60;;;;;;;;;;10256256;28;20221;-80
2023/04/10 23:47:18;;;;;;;2.97;2.78;;;;;;;;;;10281863;28;20753;-80
2023/04/10 23:52:19;;;;;;;3.38;3.10;;;;;;;;;;10264151;28;20280;-77
2023/04/10 23:57:20;;;;;;;2.90;2.80;;;;;;;;;;10263194;28;20217;-79
